createdAt,value
2024-03-15T00:00:13.830Z,66.05
2024-03-15T00:02:41.593Z,66.08
2024-03-15T00:05:10.515Z,65.99
2024-03-15T00:07:36.441Z,66.40
2024-03-15T00:10:02.253Z,66.26
2024-03-15T00:12:28.136Z,66.22
2024-03-15T00:14:55.822Z,66.05
2024-03-15T00:17:21.678Z,66.14
2024-03-15T00:19:47.467Z,66.38
2024-03-15T00:22:13.398Z,66.54
2024-03-15T00:24:39.381Z,66.18
2024-03-15T00:27:05.836Z,65.89
2024-03-15T00:29:31.897Z,66.31
2024-03-15T00:31:59.488Z,65.95
2024-03-15T00:34:25.555Z,65.88
2024-03-15T00:36:53.143Z,66.04
2024-03-15T00:39:20.901Z,66.14
2024-03-15T00:41:47.268Z,66.24
2024-03-15T00:44:15.001Z,66.40
2024-03-15T00:46:40.970Z,66.10
2024-03-15T00:49:07.009Z,66.40
2024-03-15T00:51:33.509Z,66.72
2024-03-15T00:53:59.415Z,66.47
2024-03-15T00:56:25.468Z,66.45
2024-03-15T00:58:52.452Z,66.55
2024-03-15T01:01:19.881Z,66.36
2024-03-15T01:03:46.313Z,66.34
2024-03-15T01:06:14.367Z,66.58
2024-03-15T01:08:40.770Z,66.94
2024-03-15T01:11:08.038Z,66.80
2024-03-15T01:13:34.559Z,67.47
2024-03-15T01:16:01.208Z,67.50
2024-03-15T01:18:27.267Z,67.99
2024-03-15T01:20:53.155Z,67.95
2024-03-15T01:23:19.232Z,67.91
2024-03-15T01:25:47.959Z,67.83
2024-03-15T01:28:15.256Z,67.66
2024-03-15T01:30:43.455Z,67.42
2024-03-15T01:33:10.914Z,67.39
2024-03-15T01:35:37.159Z,68.09
2024-03-15T01:38:03.590Z,67.81
2024-03-15T01:40:35.234Z,67.86
2024-03-15T01:43:01.617Z,68.03
2024-03-15T01:45:28.162Z,67.77
2024-03-15T01:47:56.387Z,67.61
2024-03-15T01:50:23.705Z,68.11
2024-03-15T01:52:51.458Z,68.08
2024-03-15T01:55:17.490Z,68.73
2024-03-15T01:57:43.672Z,68.49
2024-03-15T02:00:14.138Z,68.30
2024-03-15T02:02:40.883Z,68.60
2024-03-15T02:05:07.000Z,67.77
2024-03-15T02:07:33.305Z,68.19
2024-03-15T02:10:00.132Z,68.62
2024-03-15T02:12:26.307Z,68.44
2024-03-15T02:14:52.363Z,68.19
2024-03-15T02:17:18.980Z,68.08
2024-03-15T02:19:47.852Z,68.26
2024-03-15T02:22:13.777Z,68.10
2024-03-15T02:24:41.058Z,68.46
2024-03-15T02:27:07.834Z,68.99
2024-03-15T02:29:34.577Z,69.05
2024-03-15T02:32:00.686Z,69.29
2024-03-15T02:34:26.595Z,68.58
2024-03-15T02:36:52.796Z,68.31
2024-03-15T02:39:19.713Z,68.22
2024-03-15T02:41:46.605Z,68.37
2024-03-15T02:44:12.715Z,68.78
2024-03-15T02:46:38.745Z,68.08
2024-03-15T02:49:04.584Z,68.72
2024-03-15T02:51:30.986Z,68.48
2024-03-15T02:53:57.274Z,68.58
2024-03-15T02:56:23.369Z,68.65
2024-03-15T02:58:49.307Z,68.54
2024-03-15T03:01:15.811Z,68.50
2024-03-15T03:03:42.677Z,68.70
2024-03-15T03:06:09.108Z,68.60
2024-03-15T03:08:36.066Z,68.56
2024-03-15T03:11:07.214Z,68.65
2024-03-15T03:13:36.785Z,68.61
2024-03-15T03:16:02.913Z,68.83
2024-03-15T03:18:28.918Z,69.07
2024-03-15T03:20:56.128Z,68.63
2024-03-15T03:23:22.813Z,68.83
2024-03-15T03:25:50.090Z,68.84
2024-03-15T03:28:16.499Z,68.73
2024-03-15T03:30:43.494Z,69.12
2024-03-15T03:33:09.740Z,69.06
2024-03-15T03:35:35.705Z,68.73
2024-03-15T03:38:03.190Z,69.03
2024-03-15T03:40:29.347Z,69.21
2024-03-15T03:42:55.342Z,69.05
2024-03-15T03:45:23.326Z,68.81
2024-03-15T03:47:50.454Z,68.24
2024-03-15T03:50:18.181Z,68.34
2024-03-15T03:52:44.626Z,69.31
2024-03-15T03:55:10.750Z,69.16
2024-03-15T03:57:44.603Z,69.55
2024-03-15T04:00:18.130Z,69.71
2024-03-15T04:02:48.403Z,69.36
2024-03-15T04:05:15.780Z,69.57
2024-03-15T04:07:44.773Z,69.56
2024-03-15T04:10:10.686Z,69.59
2024-03-15T04:12:36.607Z,69.30
2024-03-15T04:15:11.799Z,68.81
2024-03-15T04:17:47.023Z,68.76
2024-03-15T04:20:16.513Z,69.04
2024-03-15T04:22:46.425Z,69.10
2024-03-15T04:25:17.366Z,69.23
2024-03-15T04:27:49.610Z,69.09
2024-03-15T04:30:16.476Z,69.81
2024-03-15T04:32:52.753Z,69.87
2024-03-15T04:35:18.704Z,69.88
2024-03-15T04:37:45.412Z,69.24
2024-03-15T04:40:11.882Z,68.90
2024-03-15T04:42:37.825Z,68.85
2024-03-15T04:45:07.122Z,69.01
2024-03-15T04:47:33.015Z,68.60
2024-03-15T04:50:01.014Z,68.70
2024-03-15T04:52:27.373Z,69.25
2024-03-15T04:54:53.259Z,69.52
2024-03-15T04:57:22.531Z,69.84
2024-03-15T04:59:48.389Z,69.94
2024-03-15T05:02:14.300Z,69.44
2024-03-15T05:04:41.717Z,69.19
2024-03-15T05:07:07.692Z,69.05
2024-03-15T05:09:33.628Z,68.85
2024-03-15T05:11:59.536Z,68.88
2024-03-15T05:14:25.390Z,69.53
2024-03-15T05:16:55.075Z,69.91
2024-03-15T05:19:26.824Z,70.39
2024-03-15T05:21:56.333Z,70.31
2024-03-15T05:24:22.250Z,70.88
2024-03-15T05:26:48.358Z,70.73
2024-03-15T05:29:14.996Z,70.92
2024-03-15T05:31:40.944Z,71.21
2024-03-15T05:34:08.410Z,71.25
2024-03-15T05:36:35.185Z,70.90
2024-03-15T05:39:01.811Z,71.01
2024-03-15T05:41:27.784Z,70.97
2024-03-15T05:43:53.832Z,71.30
2024-03-15T05:46:21.403Z,71.34
2024-03-15T05:48:47.531Z,71.05
2024-03-15T05:51:13.440Z,70.95
2024-03-15T05:53:39.331Z,71.27
2024-03-15T05:56:05.264Z,70.93
2024-03-15T05:58:31.106Z,71.71
2024-03-15T06:00:56.952Z,71.33
2024-03-15T06:03:22.846Z,71.63
2024-03-15T06:05:48.658Z,72.25
2024-03-15T06:08:14.536Z,72.28
2024-03-15T06:10:40.324Z,71.83
2024-03-15T06:13:06.337Z,71.64
2024-03-15T06:15:32.525Z,71.85
2024-03-15T06:17:58.384Z,71.13
2024-03-15T06:20:24.493Z,70.92
2024-03-15T06:22:50.656Z,71.63
2024-03-15T06:25:16.578Z,71.30
2024-03-15T06:27:44.744Z,71.41
2024-03-15T06:30:12.862Z,71.56
2024-03-15T06:32:39.336Z,71.30
2024-03-15T06:35:27.537Z,71.10
2024-03-15T06:37:54.973Z,71.50
2024-03-15T06:40:31.173Z,71.33
2024-03-15T06:43:03.380Z,71.82
2024-03-15T06:45:45.556Z,71.55
2024-03-15T06:48:18.390Z,72.06
2024-03-15T06:51:00.735Z,72.31
2024-03-15T06:53:29.584Z,72.06
2024-03-15T06:55:57.388Z,71.96
2024-03-15T06:58:24.498Z,71.83
2024-03-15T07:00:51.187Z,72.13
2024-03-15T07:03:17.201Z,71.95
2024-03-15T07:05:43.289Z,71.17
2024-03-15T07:08:09.189Z,71.42
2024-03-15T07:10:35.020Z,70.76
2024-03-15T07:13:03.783Z,70.94
2024-03-15T07:15:29.685Z,69.69
2024-03-15T07:17:55.534Z,69.34
2024-03-15T07:20:21.652Z,68.90
2024-03-15T07:22:47.744Z,68.23
2024-03-15T07:25:15.506Z,68.32
2024-03-15T07:27:42.476Z,68.01
2024-03-15T07:30:12.094Z,67.02
2024-03-15T07:32:38.795Z,66.93
2024-03-15T07:35:06.996Z,66.36
2024-03-15T07:37:33.115Z,65.56
2024-03-15T07:39:59.923Z,65.18
2024-03-15T07:42:25.985Z,64.64
2024-03-15T07:44:51.965Z,64.07
2024-03-15T07:47:19.118Z,63.52
2024-03-15T07:49:45.524Z,63.90
2024-03-15T07:52:11.424Z,62.64
2024-03-15T07:54:37.358Z,62.37
2024-03-15T07:57:03.478Z,61.84
2024-03-15T07:59:29.391Z,61.33
2024-03-15T08:01:56.008Z,61.63
2024-03-15T08:04:21.858Z,61.41
2024-03-15T08:06:47.776Z,60.73
2024-03-15T08:09:15.867Z,60.17
2024-03-15T08:11:43.111Z,60.31
2024-03-15T08:14:09.018Z,59.89
2024-03-15T08:16:35.476Z,59.89
2024-03-15T08:19:02.809Z,59.54
2024-03-15T08:21:28.729Z,59.04
2024-03-15T08:23:54.666Z,58.74
2024-03-15T08:26:21.148Z,58.44
2024-03-15T08:28:50.095Z,58.62
2024-03-15T08:31:16.843Z,58.38
2024-03-15T08:33:45.192Z,58.08
2024-03-15T08:36:13.048Z,58.25
2024-03-15T08:38:41.232Z,57.23
2024-03-15T08:41:07.486Z,56.90
2024-03-15T08:43:35.460Z,56.34
2024-03-15T08:46:01.513Z,56.87
2024-03-15T08:48:31.166Z,55.74
2024-03-15T08:50:57.797Z,55.64
2024-03-15T08:53:26.595Z,54.95
2024-03-15T08:55:52.624Z,55.01
2024-03-15T08:58:18.543Z,55.00
2024-03-15T09:00:44.563Z,54.79
2024-03-15T09:03:10.994Z,55.25
2024-03-15T09:05:38.886Z,55.37
2024-03-15T09:08:07.241Z,55.21
2024-03-15T09:10:33.872Z,53.86
2024-03-15T09:12:59.828Z,53.58
2024-03-15T09:15:27.155Z,53.67
2024-03-15T09:17:53.716Z,53.13
2024-03-15T09:20:28.668Z,52.91
2024-03-15T09:22:54.819Z,51.91
2024-03-15T09:25:23.890Z,52.49
2024-03-15T09:27:53.490Z,51.29
2024-03-15T09:30:26.798Z,51.57
2024-03-15T09:32:53.895Z,50.65
2024-03-15T09:35:20.062Z,50.58
2024-03-15T09:37:51.827Z,49.65
2024-03-15T09:40:24.029Z,49.44
2024-03-15T09:42:53.218Z,49.43
2024-03-15T09:45:19.326Z,49.02
2024-03-15T09:47:52.121Z,47.72
2024-03-15T09:50:24.497Z,48.73
2024-03-15T09:52:51.490Z,48.24
2024-03-15T09:55:18.602Z,47.55
2024-03-15T09:57:45.225Z,46.81
2024-03-15T10:00:17.085Z,46.47
2024-03-15T10:02:48.035Z,46.64
2024-03-15T10:05:17.614Z,46.41
2024-03-15T10:07:44.328Z,47.25
2024-03-15T10:10:12.066Z,44.44
2024-03-15T10:12:46.853Z,45.84
2024-03-15T10:15:14.941Z,43.80
2024-03-15T10:17:43.736Z,41.91
2024-03-15T10:20:18.402Z,42.56
2024-03-15T10:22:51.476Z,43.04
2024-03-15T10:25:19.559Z,41.24
2024-03-15T10:27:46.377Z,39.91
2024-03-15T10:30:18.202Z,39.28
2024-03-15T10:32:47.457Z,37.80
2024-03-15T10:35:14.469Z,37.79
2024-03-15T10:37:42.975Z,37.35
2024-03-15T10:40:21.231Z,37.46
2024-03-15T10:42:49.309Z,37.79
2024-03-15T10:45:17.273Z,38.27
2024-03-15T10:47:46.504Z,37.45
2024-03-15T10:50:20.990Z,37.97
2024-03-15T10:52:53.903Z,37.40
2024-03-15T10:55:26.626Z,37.60
2024-03-15T10:57:57.698Z,39.02
2024-03-15T11:00:25.457Z,39.12
2024-03-15T11:02:55.790Z,39.63
2024-03-15T11:05:26.705Z,39.88
2024-03-15T11:08:05.392Z,40.40
2024-03-15T11:10:34.214Z,41.10
2024-03-15T11:13:01.698Z,41.61
2024-03-15T11:15:34.158Z,40.29
2024-03-15T11:18:04.058Z,41.41
2024-03-15T11:20:47.146Z,39.93
2024-03-15T11:23:16.967Z,39.19
2024-03-15T11:26:06.948Z,39.56
2024-03-15T11:28:34.627Z,39.43
2024-03-15T11:31:00.838Z,38.69
2024-03-15T11:33:28.385Z,39.28
2024-03-15T11:35:55.481Z,39.36
2024-03-15T11:38:21.580Z,38.76
2024-03-15T11:40:48.234Z,38.33
2024-03-15T11:43:15.269Z,38.67
2024-03-15T11:45:42.454Z,38.52
2024-03-15T11:48:17.077Z,38.41
2024-03-15T11:50:45.133Z,38.15
2024-03-15T11:53:13.030Z,38.06
2024-03-15T11:55:42.865Z,38.93
2024-03-15T11:58:13.292Z,38.15
2024-03-15T12:00:39.311Z,37.60
2024-03-15T12:03:07.533Z,38.07
2024-03-15T12:05:38.413Z,37.62
2024-03-15T12:08:13.064Z,37.92
2024-03-15T12:10:39.788Z,37.55
2024-03-15T12:13:26.220Z,37.97
2024-03-15T12:15:53.919Z,37.79
2024-03-15T12:18:22.236Z,37.52
2024-03-15T12:20:50.893Z,37.87
2024-03-15T12:23:18.758Z,37.67
2024-03-15T12:25:47.463Z,36.96
2024-03-15T12:28:15.024Z,36.23
2024-03-15T12:30:46.071Z,36.49
2024-03-15T12:33:12.464Z,36.55
2024-03-15T12:35:39.887Z,36.25
2024-03-15T12:38:07.499Z,36.47
2024-03-15T12:40:34.196Z,36.73
2024-03-15T12:43:00.272Z,36.31
2024-03-15T12:45:27.466Z,36.27
2024-03-15T12:47:53.302Z,34.88
2024-03-15T12:50:20.904Z,35.09
2024-03-15T12:52:46.969Z,35.21
2024-03-15T12:55:17.462Z,35.29
2024-03-15T12:57:46.195Z,35.03
2024-03-15T13:00:14.639Z,34.90
2024-03-15T13:02:43.009Z,35.02
2024-03-15T13:05:16.689Z,35.95
2024-03-15T13:07:43.513Z,36.12
2024-03-15T13:10:09.609Z,35.61
2024-03-15T13:12:36.060Z,36.61
2024-03-15T13:15:02.086Z,35.77
2024-03-15T13:17:27.923Z,36.87
2024-03-15T13:19:53.981Z,35.73
2024-03-15T13:22:20.367Z,35.71
2024-03-15T13:24:46.416Z,35.05
2024-03-15T13:27:15.463Z,34.84
2024-03-15T13:29:41.410Z,34.92
2024-03-15T13:32:10.250Z,35.37
2024-03-15T13:34:36.217Z,35.38
2024-03-15T13:37:02.112Z,35.15
2024-03-15T13:39:31.747Z,35.57
2024-03-15T13:42:01.577Z,34.89
2024-03-15T13:44:28.382Z,35.92
2024-03-15T13:46:54.754Z,35.40
2024-03-15T13:49:20.917Z,35.14
2024-03-15T13:51:46.914Z,34.93
2024-03-15T13:54:12.840Z,35.73
2024-03-15T13:56:38.904Z,35.42
2024-03-15T13:59:06.280Z,35.58
2024-03-15T14:01:32.139Z,35.63
2024-03-15T14:03:58.908Z,35.61
2024-03-15T14:06:27.089Z,35.76
2024-03-15T14:08:54.155Z,36.32
2024-03-15T14:11:20.520Z,36.24
2024-03-15T14:13:49.523Z,35.82
2024-03-15T14:16:16.631Z,35.35
2024-03-15T14:18:43.268Z,36.04
2024-03-15T14:21:09.143Z,36.09
2024-03-15T14:23:35.060Z,34.61
2024-03-15T14:26:00.865Z,35.92
2024-03-15T14:28:28.731Z,36.25
2024-03-15T14:30:57.635Z,35.83
2024-03-15T14:33:23.885Z,35.46
2024-03-15T14:35:51.572Z,35.69
2024-03-15T14:38:18.357Z,35.31
2024-03-15T14:40:44.193Z,35.15
2024-03-15T14:43:11.297Z,36.02
2024-03-15T14:45:38.288Z,35.91
2024-03-15T14:48:10.272Z,35.73
2024-03-15T14:50:40.329Z,36.29
2024-03-15T14:53:06.352Z,37.11
2024-03-15T14:55:35.682Z,36.37
2024-03-15T14:58:03.393Z,36.17
2024-03-15T15:00:32.270Z,36.37
2024-03-15T15:02:58.554Z,36.23
2024-03-15T15:05:27.762Z,35.43
2024-03-15T15:07:59.218Z,35.50
2024-03-15T15:10:25.821Z,36.04
2024-03-15T15:12:53.571Z,35.71
2024-03-15T15:15:22.926Z,35.64
2024-03-15T15:17:51.201Z,36.36
2024-03-15T15:20:18.851Z,36.54
2024-03-15T15:22:47.015Z,36.50
2024-03-15T15:25:15.227Z,36.69
2024-03-15T15:27:43.570Z,36.79
2024-03-15T15:30:11.384Z,36.78
2024-03-15T15:32:37.468Z,36.97
2024-03-15T15:35:08.522Z,36.85
2024-03-15T15:37:37.926Z,37.39
2024-03-15T15:40:13.883Z,37.29
2024-03-15T15:42:41.133Z,36.82
2024-03-15T15:45:08.507Z,37.71
2024-03-15T15:47:34.541Z,37.78
2024-03-15T15:50:05.775Z,38.30
2024-03-15T15:52:35.260Z,38.89
2024-03-15T15:55:01.431Z,38.78
2024-03-15T15:57:27.365Z,38.79
2024-03-15T15:59:53.209Z,39.04
2024-03-15T16:02:19.438Z,38.68
2024-03-15T16:04:45.397Z,39.46
2024-03-15T16:07:11.267Z,40.07
2024-03-15T16:09:37.155Z,40.63
2024-03-15T16:12:03.909Z,41.29
2024-03-15T16:14:30.125Z,40.96
2024-03-15T16:16:57.786Z,41.59
2024-03-15T16:19:23.945Z,42.61
2024-03-15T16:21:49.871Z,43.84
2024-03-15T16:24:15.767Z,43.86
2024-03-15T16:26:41.674Z,43.65
2024-03-15T16:29:07.746Z,44.19
2024-03-15T16:31:33.753Z,44.69
2024-03-15T16:33:59.685Z,45.21
2024-03-15T16:36:27.933Z,45.45
2024-03-15T16:38:58.026Z,45.80
2024-03-15T16:41:26.128Z,45.76
2024-03-15T16:43:52.099Z,46.06
2024-03-15T16:46:18.522Z,46.23
2024-03-15T16:48:44.357Z,47.07
2024-03-15T16:51:10.191Z,47.51
2024-03-15T16:53:36.999Z,47.64
2024-03-15T16:56:03.208Z,47.84
2024-03-15T16:58:30.035Z,47.91
2024-03-15T17:00:56.155Z,48.26
2024-03-15T17:03:22.301Z,49.02
2024-03-15T17:05:48.285Z,49.65
2024-03-15T17:08:15.182Z,49.90
2024-03-15T17:10:41.522Z,50.16
2024-03-15T17:13:07.925Z,49.82
2024-03-15T17:15:35.802Z,50.46
2024-03-15T17:18:01.923Z,50.56
2024-03-15T17:20:27.852Z,51.04
2024-03-15T17:22:53.691Z,51.71
2024-03-15T17:25:19.604Z,51.55
2024-03-15T17:27:45.463Z,51.92
2024-03-15T17:30:11.604Z,51.80
2024-03-15T17:32:38.424Z,51.77
2024-03-15T17:35:05.786Z,52.11
2024-03-15T17:37:32.181Z,52.29
2024-03-15T17:39:58.123Z,52.29
2024-03-15T17:42:24.513Z,52.39
2024-03-15T17:44:50.381Z,52.94
2024-03-15T17:47:16.421Z,53.14
2024-03-15T17:49:42.265Z,53.81
2024-03-15T17:52:08.176Z,53.59
2024-03-15T17:54:36.098Z,53.50
2024-03-15T17:57:01.950Z,53.53
2024-03-15T17:59:27.879Z,53.54
2024-03-15T18:01:53.999Z,53.58
2024-03-15T18:04:21.524Z,53.70
2024-03-15T18:06:47.445Z,54.03
2024-03-15T18:09:13.308Z,54.00
2024-03-15T18:11:39.476Z,55.10
2024-03-15T18:14:05.640Z,54.88
2024-03-15T18:16:33.282Z,55.02
2024-03-15T18:18:59.625Z,54.88
2024-03-15T18:21:25.667Z,54.63
2024-03-15T18:23:51.727Z,55.12
2024-03-15T18:26:19.155Z,54.92
2024-03-15T18:28:45.084Z,55.37
2024-03-15T18:31:14.402Z,55.44
2024-03-15T18:33:40.491Z,55.71
2024-03-15T18:36:06.759Z,56.23
2024-03-15T18:38:32.671Z,56.76
2024-03-15T18:40:58.575Z,56.70
2024-03-15T18:43:24.441Z,56.85
2024-03-15T18:45:50.538Z,57.02
2024-03-15T18:48:16.600Z,57.14
2024-03-15T18:50:42.937Z,57.32
2024-03-15T18:53:09.141Z,57.60
2024-03-15T18:55:35.110Z,57.82
2024-03-15T18:58:01.640Z,57.44
2024-03-15T19:00:29.520Z,57.69
2024-03-15T19:02:56.355Z,58.10
2024-03-15T19:05:22.846Z,57.88
2024-03-15T19:07:51.288Z,58.55
2024-03-15T19:10:17.487Z,58.35
2024-03-15T19:12:43.359Z,58.45
2024-03-15T19:15:09.359Z,58.81
2024-03-15T19:17:36.119Z,58.85
2024-03-15T19:20:06.518Z,58.95
2024-03-15T19:22:33.817Z,59.17
2024-03-15T19:24:59.948Z,59.16
2024-03-15T19:27:26.855Z,59.33
2024-03-15T19:29:54.010Z,59.92
2024-03-15T19:32:27.991Z,59.78
2024-03-15T19:34:58.774Z,59.89
2024-03-15T19:37:28.219Z,59.98
2024-03-15T19:39:54.429Z,60.76
2024-03-15T19:42:20.519Z,60.23
2024-03-15T19:44:46.464Z,60.19
2024-03-15T19:47:12.761Z,60.34
2024-03-15T19:49:38.731Z,60.79
2024-03-15T19:52:05.029Z,60.65
2024-03-15T19:54:31.153Z,61.12
2024-03-15T19:56:57.121Z,61.72
2024-03-15T19:59:23.128Z,61.87
2024-03-15T20:01:49.351Z,62.04
2024-03-15T20:04:16.178Z,61.92
2024-03-15T20:06:42.419Z,61.93
2024-03-15T20:09:08.612Z,61.71
2024-03-15T20:11:37.437Z,61.42
2024-03-15T20:14:06.181Z,61.37
2024-03-15T20:16:34.195Z,61.36
2024-03-15T20:19:00.398Z,61.19
2024-03-15T20:21:26.348Z,61.38
2024-03-15T20:23:56.762Z,61.79
2024-03-15T20:26:24.612Z,62.15
2024-03-15T20:28:54.080Z,62.67
2024-03-15T20:31:20.000Z,62.46
2024-03-15T20:33:45.834Z,62.36
2024-03-15T20:36:11.700Z,62.33
2024-03-15T20:38:37.493Z,62.17
2024-03-15T20:41:03.480Z,62.24
2024-03-15T20:43:30.764Z,62.09
2024-03-15T20:45:57.124Z,61.44
2024-03-15T20:48:23.024Z,60.71
2024-03-15T20:50:53.768Z,61.02
2024-03-15T20:53:19.615Z,61.79
2024-03-15T20:55:45.437Z,62.47
2024-03-15T20:58:11.865Z,62.71
2024-03-15T21:00:38.307Z,62.64
2024-03-15T21:03:04.289Z,62.72
2024-03-15T21:05:30.694Z,63.31
2024-03-15T21:07:56.791Z,63.10
2024-03-15T21:10:22.918Z,63.33
2024-03-15T21:12:48.830Z,63.40
2024-03-15T21:15:14.699Z,63.46
2024-03-15T21:17:41.326Z,63.41
2024-03-15T21:20:16.415Z,63.50
2024-03-15T21:22:43.408Z,63.74
2024-03-15T21:25:10.954Z,63.20
2024-03-15T21:27:37.205Z,63.33
2024-03-15T21:30:06.258Z,63.73
2024-03-15T21:32:35.305Z,63.39
2024-03-15T21:35:01.386Z,63.53
2024-03-15T21:37:27.319Z,63.70
2024-03-15T21:39:53.240Z,64.04
2024-03-15T21:42:19.419Z,64.11
2024-03-15T21:44:46.788Z,64.52
2024-03-15T21:47:12.687Z,64.40
2024-03-15T21:49:38.593Z,64.39
2024-03-15T21:52:05.031Z,64.29
2024-03-15T21:54:33.335Z,64.28
2024-03-15T21:56:59.151Z,64.59
2024-03-15T21:59:26.193Z,64.56
2024-03-15T22:01:56.459Z,64.28
2024-03-15T22:04:30.307Z,64.35
2024-03-15T22:06:56.547Z,64.14
2024-03-15T22:09:22.651Z,64.72
2024-03-15T22:11:48.529Z,64.90
2024-03-15T22:14:14.316Z,65.38
2024-03-15T22:16:40.236Z,65.46
2024-03-15T22:19:06.239Z,65.57
2024-03-15T22:21:32.202Z,65.23
2024-03-15T22:23:58.005Z,65.12
2024-03-15T22:26:23.899Z,65.00
2024-03-15T22:28:49.924Z,64.74
2024-03-15T22:31:16.590Z,65.33
2024-03-15T22:33:43.621Z,65.58
2024-03-15T22:36:09.600Z,65.32
2024-03-15T22:38:36.276Z,65.20
2024-03-15T22:41:02.686Z,65.18
2024-03-15T22:43:30.533Z,64.97
2024-03-15T22:45:56.622Z,65.31
2024-03-15T22:48:23.667Z,65.14
2024-03-15T22:50:49.684Z,65.41
2024-03-15T22:53:16.143Z,65.71
2024-03-15T22:55:45.797Z,65.69
2024-03-15T22:58:11.827Z,65.73
2024-03-15T23:00:43.755Z,66.11
2024-03-15T23:03:10.216Z,66.19
2024-03-15T23:05:36.056Z,66.15
2024-03-15T23:08:01.963Z,66.24
2024-03-15T23:10:27.828Z,66.38
2024-03-15T23:12:54.880Z,66.51
2024-03-15T23:15:21.259Z,66.38
2024-03-15T23:17:49.290Z,65.92
2024-03-15T23:20:17.716Z,66.16
2024-03-15T23:22:46.086Z,66.63
2024-03-15T23:25:13.202Z,66.71
2024-03-15T23:27:39.436Z,66.51
2024-03-15T23:30:07.429Z,66.48
2024-03-15T23:32:33.844Z,66.97
2024-03-15T23:35:05.373Z,67.26
2024-03-15T23:37:32.375Z,66.88
2024-03-15T23:39:58.396Z,67.27
2024-03-15T23:42:24.340Z,67.16
2024-03-15T23:44:50.283Z,66.99
2024-03-15T23:47:16.114Z,67.15
2024-03-15T23:49:42.931Z,67.38
2024-03-15T23:52:10.186Z,67.60
2024-03-15T23:54:37.492Z,67.16
2024-03-15T23:57:03.584Z,66.84
2024-03-15T23:59:29.403Z,67.53
